createdAt,value
2019-04-20T00:01:29.414Z,9.20
2019-04-20T00:03:58.899Z,9.20
2019-04-20T00:06:31.662Z,9.00
2019-04-20T00:09:08.797Z,8.80
2019-04-20T00:11:44.992Z,8.60
2019-04-20T00:14:13.449Z,8.30
2019-04-20T00:16:37.833Z,7.90
2019-04-20T00:19:09.297Z,7.70
2019-04-20T00:21:47.020Z,7.50
2019-04-20T00:24:21.984Z,7.40
2019-04-20T00:29:39.401Z,7.20
2019-04-20T00:32:02.535Z,7.20
2019-04-20T00:34:29.503Z,7.30
2019-04-20T00:36:54.217Z,7.30
2019-04-20T00:39:23.995Z,7.30
2019-04-20T00:41:59.866Z,7.30
2019-04-20T00:44:30.371Z,7.50
2019-04-20T00:47:08.635Z,7.70
2019-04-20T00:49:41.331Z,7.90
2019-04-20T00:52:26.745Z,7.90
2019-04-20T00:54:30.604Z,7.90
2019-04-20T00:57:15.603Z,7.90
2019-04-20T00:59:55.231Z,7.90
2019-04-20T01:02:20.844Z,7.90
2019-04-20T01:04:57.966Z,7.80
2019-04-20T01:07:29.760Z,7.70
2019-04-20T01:09:58.326Z,7.60
2019-04-20T01:12:31.386Z,7.40
2019-04-20T01:15:05.143Z,7.40
2019-04-20T01:17:33.526Z,7.40
2019-04-20T01:20:03.346Z,7.40
2019-04-20T01:22:40.286Z,7.40
2019-04-20T01:25:09.754Z,7.30
2019-04-20T01:27:50.102Z,7.30
2019-04-20T01:30:17.418Z,7.30
2019-04-20T01:33:16.337Z,7.40
2019-04-20T01:36:03.019Z,7.40
2019-04-20T01:38:55.059Z,7.50
2019-04-20T01:41:20.211Z,7.50
2019-04-20T01:43:50.176Z,7.50
2019-04-20T01:46:23.161Z,7.50
2019-04-20T01:48:52.556Z,7.50
2019-04-20T01:51:28.167Z,7.40
2019-04-20T01:54:18.411Z,7.40
2019-04-20T01:56:43.443Z,7.40
2019-04-20T01:59:24.074Z,7.30
2019-04-20T02:02:14.448Z,7.20
2019-04-20T02:04:48.186Z,7.20
2019-04-20T02:07:18.438Z,7.10
2019-04-20T02:09:53.553Z,7.10
2019-04-20T02:12:23.601Z,7.00
2019-04-20T02:14:55.250Z,7.00
2019-04-20T02:17:27.887Z,7.00
2019-04-20T02:20:12.534Z,6.90
2019-04-20T02:22:45.170Z,6.90
2019-04-20T02:24:55.142Z,6.80
2019-04-20T02:27:29.990Z,6.80
2019-04-20T02:30:25.263Z,6.60
2019-04-20T02:33:09.100Z,6.60
2019-04-20T02:38:56.421Z,6.50
2019-04-20T02:41:28.323Z,6.60
2019-04-20T02:43:46.886Z,6.50
2019-04-20T02:46:08.871Z,6.50
2019-04-20T02:48:45.205Z,6.40
2019-04-20T02:51:13.368Z,6.40
2019-04-20T02:53:55.622Z,6.40
2019-04-20T02:56:21.979Z,6.40
2019-04-20T02:58:56.223Z,6.30
2019-04-20T03:01:32.121Z,6.40
2019-04-20T03:03:51.141Z,6.30
2019-04-20T03:06:30.765Z,6.30
2019-04-20T03:09:15.583Z,6.30
2019-04-20T03:11:52.777Z,6.20
2019-04-20T03:14:09.518Z,6.20
2019-04-20T03:16:41.203Z,6.10
2019-04-20T03:19:11.778Z,6.10
2019-04-20T03:21:55.506Z,6.10
2019-04-20T03:24:26.585Z,6.20
2019-04-20T03:26:50.569Z,6.10
2019-04-20T03:29:42.284Z,6.20
2019-04-20T03:37:27.901Z,6.10
2019-04-20T03:39:45.773Z,6.10
2019-04-20T03:42:03.630Z,6.10
2019-04-20T03:44:35.702Z,6.00
2019-04-20T03:47:08.698Z,5.90
2019-04-20T03:50:03.317Z,5.90
2019-04-20T03:52:32.907Z,5.80
2019-04-20T03:55:19.979Z,5.80
2019-04-20T03:58:03.339Z,5.70
2019-04-20T04:06:11.832Z,5.60
2019-04-20T04:08:37.837Z,5.60
2019-04-20T04:11:24.415Z,5.50
2019-04-20T04:13:33.586Z,5.60
2019-04-20T04:16:08.822Z,5.60
2019-04-20T04:18:42.036Z,5.50
2019-04-20T04:21:11.485Z,5.40
2019-04-20T04:23:55.671Z,5.40
2019-04-20T04:26:29.219Z,5.40
2019-04-20T04:29:05.984Z,5.40
2019-04-20T04:31:33.807Z,5.40
2019-04-20T04:34:04.357Z,5.40
2019-04-20T04:36:30.126Z,5.40
2019-04-20T04:39:10.810Z,5.40
2019-04-20T04:41:36.450Z,5.50
2019-04-20T04:44:03.133Z,5.50
2019-04-20T04:46:20.684Z,5.40
2019-04-20T04:48:52.922Z,5.50
2019-04-20T04:51:29.232Z,5.60
2019-04-20T04:53:59.808Z,5.60
2019-04-20T04:56:26.834Z,5.70
2019-04-20T04:58:56.177Z,5.60
2019-04-20T05:01:29.405Z,5.80
2019-04-20T05:06:45.754Z,6.00
2019-04-20T05:09:03.795Z,6.10
2019-04-20T05:11:32.598Z,6.10
2019-04-20T05:14:08.459Z,6.20
2019-04-20T05:16:51.017Z,6.40
2019-04-20T05:19:36.869Z,6.50
2019-04-20T05:22:20.564Z,6.60
2019-04-20T05:25:01.037Z,6.80
2019-04-20T05:27:51.199Z,6.80
2019-04-20T05:30:07.807Z,6.90
2019-04-20T05:32:48.349Z,7.00
2019-04-20T05:35:37.864Z,7.20
2019-04-20T05:38:08.131Z,7.20
2019-04-20T05:40:35.356Z,7.30
2019-04-20T05:43:10.662Z,7.50
2019-04-20T05:45:37.998Z,7.70
2019-04-20T05:48:11.821Z,7.90
2019-04-20T05:50:42.448Z,7.90
2019-04-20T05:53:20.282Z,8.10
2019-04-20T05:55:51.512Z,8.30
2019-04-20T05:58:21.678Z,8.40
2019-04-20T06:00:55.142Z,8.50
2019-04-20T06:03:20.340Z,8.50
2019-04-20T06:05:59.412Z,8.60
2019-04-20T06:08:32.061Z,8.70
2019-04-20T06:10:56.386Z,8.80
2019-04-20T06:13:32.599Z,8.80
2019-04-20T06:16:07.817Z,8.70
2019-04-20T06:18:45.903Z,8.90
2019-04-20T06:21:33.429Z,8.90
2019-04-20T06:24:11.862Z,9.00
2019-04-20T06:26:52.109Z,9.10
2019-04-20T06:29:09.721Z,9.30
2019-04-20T06:31:45.689Z,9.60
2019-04-20T06:39:33.226Z,9.80
2019-04-20T06:47:08.895Z,10.00
2019-04-20T06:49:45.361Z,10.10
2019-04-20T06:55:03.380Z,9.80
2019-04-20T06:57:40.739Z,10.00
2019-04-20T07:00:11.347Z,10.20
2019-04-20T07:02:44.358Z,10.40
2019-04-20T07:05:11.825Z,10.60
2019-04-20T07:07:47.581Z,10.90
2019-04-20T07:10:19.436Z,11.00
2019-04-20T07:12:43.169Z,11.10
2019-04-20T07:15:17.714Z,11.20
2019-04-20T07:20:55.328Z,11.50
2019-04-20T07:25:56.747Z,11.60
2019-04-20T07:28:29.236Z,11.80
2019-04-20T07:30:58.241Z,12.00
2019-04-20T07:33:29.656Z,12.10
2019-04-20T07:35:57.917Z,12.30
2019-04-20T07:40:55.807Z,12.50
2019-04-20T07:43:30.487Z,12.70
2019-04-20T07:46:02.801Z,12.90
2019-04-20T07:48:35.103Z,13.20
2019-04-20T07:50:55.463Z,13.30
2019-04-20T07:53:30.585Z,13.40
2019-04-20T07:56:04.979Z,13.60
2019-04-20T07:58:28.600Z,13.70
2019-04-20T08:01:22.520Z,13.70
2019-04-20T08:04:06.692Z,13.90
2019-04-20T08:06:24.486Z,14.20
2019-04-20T08:09:03.777Z,14.40
2019-04-20T08:11:41.067Z,14.60
2019-04-20T08:14:16.284Z,14.90
2019-04-20T08:16:57.307Z,14.90
2019-04-20T08:19:12.275Z,15.10
2019-04-20T08:21:48.442Z,15.00
2019-04-20T08:24:15.958Z,15.40
2019-04-20T08:26:32.523Z,15.60
2019-04-20T08:29:27.568Z,15.70
2019-04-20T08:32:21.460Z,15.90
2019-04-20T08:34:53.738Z,16.20
2019-04-20T08:37:20.706Z,15.90
2019-04-20T08:42:22.106Z,16.30
2019-04-20T08:47:39.547Z,16.90
2019-04-20T08:50:21.219Z,17.10
2019-04-20T08:55:14.821Z,17.50
2019-04-20T08:57:29.375Z,17.50
2019-04-20T09:00:01.514Z,17.70
2019-04-20T09:02:32.647Z,18.10
2019-04-20T09:05:11.496Z,18.20
2019-04-20T09:07:46.938Z,18.40
2019-04-20T09:10:28.248Z,18.30
2019-04-20T09:12:53.148Z,18.60
2019-04-20T09:15:10.455Z,18.50
2019-04-20T09:17:52.492Z,18.70
2019-04-20T09:20:34.351Z,19.00
2019-04-20T09:23:08.115Z,19.20
2019-04-20T09:25:54.621Z,19.10
2019-04-20T09:28:23.481Z,19.30
2019-04-20T09:30:54.277Z,19.40
2019-04-20T09:34:03.009Z,19.50
2019-04-20T09:36:56.471Z,19.60
2019-04-20T09:39:33.822Z,19.40
2019-04-20T09:42:03.839Z,19.60
2019-04-20T09:44:37.559Z,19.90
2019-04-20T09:47:06.474Z,20.30
2019-04-20T09:49:49.236Z,20.30
2019-04-20T09:52:26.157Z,20.40
2019-04-20T09:54:55.099Z,20.40
2019-04-20T09:57:30.690Z,20.50
2019-04-20T09:59:57.516Z,20.70
2019-04-20T10:02:18.747Z,20.80
2019-04-20T10:04:44.860Z,20.60
2019-04-20T10:07:18.563Z,20.80
2019-04-20T10:09:48.343Z,20.80
2019-04-20T10:12:19.651Z,21.10
2019-04-20T10:14:49.419Z,21.40
2019-04-20T10:17:20.249Z,21.60
2019-04-20T10:19:51.303Z,21.70
2019-04-20T10:22:22.460Z,21.90
2019-04-20T10:24:53.826Z,21.80
2019-04-20T10:27:24.791Z,21.80
2019-04-20T10:29:55.495Z,21.90
2019-04-20T10:32:33.159Z,22.20
2019-04-20T10:34:56.816Z,22.20
2019-04-20T10:37:31.526Z,22.10
2019-04-20T10:40:02.765Z,22.20
2019-04-20T10:42:32.688Z,22.30
2019-04-20T10:45:03.065Z,22.30
2019-04-20T10:47:34.929Z,22.70
2019-04-20T10:50:05.506Z,22.60
2019-04-20T10:52:36.057Z,23.00
2019-04-20T10:55:06.214Z,22.50
2019-04-20T10:57:37.504Z,22.10
2019-04-20T11:00:09.863Z,22.40
2019-04-20T11:02:42.603Z,22.60
2019-04-20T11:05:12.678Z,22.80
2019-04-20T11:07:42.611Z,22.50
2019-04-20T11:10:19.781Z,23.00
2019-04-20T11:12:44.317Z,23.30
2019-04-20T11:15:16.438Z,23.40
2019-04-20T11:17:46.189Z,23.70
2019-04-20T11:20:17.168Z,23.70
2019-04-20T11:22:48.433Z,23.80
2019-04-20T11:25:18.397Z,23.40
2019-04-20T11:27:48.187Z,23.00
2019-04-20T11:30:18.212Z,23.50
2019-04-20T11:32:48.435Z,24.00
2019-04-20T11:35:26.275Z,24.10
2019-04-20T11:37:49.653Z,24.50
2019-04-20T11:40:19.602Z,24.40
2019-04-20T11:42:49.998Z,24.60
2019-04-20T11:45:20.548Z,24.60
2019-04-20T11:47:51.587Z,24.90
2019-04-20T11:50:21.918Z,24.50
2019-04-20T11:52:52.999Z,24.90
2019-04-20T11:55:23.131Z,25.20
2019-04-20T11:57:54.538Z,25.30
2019-04-20T12:00:46.974Z,25.40
2019-04-20T12:03:28.201Z,25.70
2019-04-20T12:05:55.332Z,26.10
2019-04-20T12:08:23.051Z,26.30
2019-04-20T12:10:56.495Z,26.40
2019-04-20T12:13:27.180Z,26.60
2019-04-20T12:15:56.811Z,26.60
2019-04-20T12:18:27.613Z,26.00
2019-04-20T12:20:58.802Z,26.40
2019-04-20T12:23:28.602Z,26.60
2019-04-20T12:25:59.670Z,27.00
2019-04-20T12:28:29.658Z,25.80
2019-04-20T12:31:06.438Z,26.70
2019-04-20T12:33:30.950Z,27.20
2019-04-20T12:36:00.578Z,27.20
2019-04-20T12:38:30.802Z,27.30
2019-04-20T12:41:03.055Z,27.10
2019-04-20T12:43:32.231Z,27.40
2019-04-20T12:46:02.202Z,27.40
2019-04-20T12:48:33.540Z,26.80
2019-04-20T12:51:03.726Z,26.90
2019-04-20T12:53:34.941Z,27.00
2019-04-20T12:56:04.779Z,27.10
2019-04-20T12:58:34.688Z,27.00
2019-04-20T13:01:06.609Z,26.20
2019-04-20T13:03:37.345Z,25.90
2019-04-20T13:06:07.994Z,26.40
2019-04-20T13:08:42.231Z,27.00
2019-04-20T13:11:16.296Z,27.40
2019-04-20T13:14:06.338Z,27.60
2019-04-20T13:16:38.609Z,27.30
2019-04-20T13:19:08.917Z,27.40
2019-04-20T13:21:39.052Z,26.40
2019-04-20T13:24:09.334Z,26.70
2019-04-20T13:26:39.076Z,27.20
2019-04-20T13:29:08.845Z,27.50
2019-04-20T13:31:38.727Z,26.70
2019-04-20T13:34:09.904Z,27.20
2019-04-20T13:36:40.025Z,27.50
2019-04-20T13:39:12.140Z,27.70
2019-04-20T13:41:42.129Z,27.90
2019-04-20T13:44:11.863Z,28.30
2019-04-20T13:46:42.842Z,28.20
2019-04-20T13:49:13.181Z,27.50
2019-04-20T13:51:44.485Z,27.90
2019-04-20T13:54:18.863Z,28.20
2019-04-20T13:56:47.759Z,28.30
2019-04-20T13:59:29.924Z,28.40
2019-04-20T14:02:17.169Z,28.50
2019-04-20T14:04:56.994Z,28.20
2019-04-20T14:07:27.202Z,28.10
2019-04-20T14:09:57.422Z,27.10
2019-04-20T14:12:32.462Z,27.60
2019-04-20T14:14:59.465Z,28.10
2019-04-20T14:17:30.580Z,26.80
2019-04-20T14:20:06.941Z,27.60
2019-04-20T14:22:31.783Z,28.10
2019-04-20T14:25:02.912Z,28.50
2019-04-20T14:27:32.924Z,28.30
2019-04-20T14:30:03.477Z,28.60
2019-04-20T14:32:34.577Z,28.60
2019-04-20T14:35:05.032Z,28.50
2019-04-20T14:37:34.979Z,28.60
2019-04-20T14:40:06.237Z,28.00
2019-04-20T14:42:42.800Z,28.30
2019-04-20T14:45:08.940Z,28.80
2019-04-20T14:47:39.549Z,29.00
2019-04-20T14:50:09.801Z,29.00
2019-04-20T14:52:41.928Z,29.10
2019-04-20T14:55:14.382Z,28.30
2019-04-20T14:57:43.593Z,28.70
2019-04-20T15:00:32.346Z,28.90
2019-04-20T15:03:21.848Z,29.30
2019-04-20T15:05:56.133Z,30.00
2019-04-20T15:08:26.899Z,29.60
2019-04-20T15:10:58.813Z,29.40
2019-04-20T15:13:28.878Z,29.20
2019-04-20T15:15:58.979Z,29.40
2019-04-20T15:18:43.250Z,29.00
2019-04-20T15:21:17.645Z,28.80
2019-04-20T15:23:47.948Z,28.70
2019-04-20T15:26:18.444Z,28.50
2019-04-20T15:28:48.388Z,28.20
2019-04-20T15:31:18.475Z,28.00
2019-04-20T15:33:48.853Z,27.90
2019-04-20T15:36:20.043Z,27.70
2019-04-20T15:38:51.266Z,27.50
2019-04-20T15:41:21.020Z,27.60
2019-04-20T15:43:51.211Z,27.50
2019-04-20T15:46:21.407Z,27.20
2019-04-20T15:48:52.361Z,27.00
2019-04-20T15:51:23.639Z,26.50
2019-04-20T15:53:53.612Z,26.30
2019-04-20T15:56:23.208Z,26.10
2019-04-20T15:58:52.853Z,26.10
2019-04-20T16:01:26.009Z,25.90
2019-04-20T16:04:01.459Z,25.90
2019-04-20T16:06:32.871Z,25.90
2019-04-20T16:09:04.296Z,26.00
2019-04-20T16:11:35.073Z,26.30
2019-04-20T16:14:09.063Z,26.20
2019-04-20T16:16:42.571Z,26.30
2019-04-20T16:19:28.218Z,26.20
2019-04-20T16:21:49.940Z,26.00
2019-04-20T16:24:27.391Z,26.00
2019-04-20T16:27:25.662Z,26.10
2019-04-20T16:29:57.771Z,26.10
2019-04-20T16:32:30.382Z,25.70
2019-04-20T16:35:04.421Z,25.60
2019-04-20T16:37:38.261Z,25.40
2019-04-20T16:40:11.654Z,25.30
2019-04-20T16:42:45.167Z,25.20
2019-04-20T16:45:17.612Z,24.70
2019-04-20T16:47:50.472Z,24.60
2019-04-20T16:50:22.718Z,24.20
2019-04-20T16:52:54.851Z,23.90
2019-04-20T16:55:25.105Z,23.90
2019-04-20T16:57:55.566Z,23.80
2019-04-20T17:00:25.483Z,23.60
2019-04-20T17:02:56.257Z,23.40
2019-04-20T17:05:27.397Z,23.00
2019-04-20T17:07:57.728Z,22.90
2019-04-20T17:10:28.749Z,22.80
2019-04-20T17:12:59.806Z,22.90
2019-04-20T17:15:29.693Z,22.80
2019-04-20T17:17:59.345Z,22.60
2019-04-20T17:20:30.642Z,22.50
2019-04-20T17:23:03.354Z,22.30
2019-04-20T17:25:32.236Z,22.00
2019-04-20T17:28:33.201Z,21.50
2019-04-20T17:31:15.482Z,21.10
2019-04-20T17:34:01.563Z,20.80
2019-04-20T17:36:26.249Z,20.30
2019-04-20T17:38:57.688Z,20.10
2019-04-20T17:41:44.625Z,19.90
2019-04-20T17:44:15.775Z,19.60
2019-04-20T17:46:43.885Z,19.50
2019-04-20T17:49:15.934Z,19.20
2019-04-20T17:51:55.544Z,19.20
2019-04-20T17:54:21.850Z,19.00
2019-04-20T17:56:53.957Z,18.80
2019-04-20T17:59:24.333Z,18.80
2019-04-20T18:02:25.026Z,18.70
2019-04-20T18:05:20.029Z,18.60
2019-04-20T18:07:46.665Z,18.50
2019-04-20T18:10:17.434Z,18.40
2019-04-20T18:12:37.463Z,18.20
2019-04-20T18:15:21.247Z,18.20
2019-04-20T18:18:24.032Z,18.10
2019-04-20T18:20:54.729Z,17.80
2019-04-20T18:23:33.062Z,17.50
2019-04-20T18:26:18.525Z,17.20
2019-04-20T18:28:54.378Z,17.10
2019-04-20T18:31:09.058Z,17.00
2019-04-20T18:33:38.885Z,16.80
2019-04-20T18:36:13.426Z,16.70
2019-04-20T18:38:50.089Z,16.50
2019-04-20T18:41:25.679Z,16.20
2019-04-20T18:43:50.806Z,15.90
2019-04-20T18:46:34.636Z,15.80
2019-04-20T18:49:04.851Z,15.60
2019-04-20T18:51:19.678Z,15.30
2019-04-20T18:53:50.478Z,15.00
2019-04-20T18:56:26.742Z,14.80
2019-04-20T18:58:53.434Z,14.60
2019-04-20T19:01:30.130Z,14.30
2019-04-20T19:03:57.126Z,14.10
2019-04-20T19:06:27.636Z,14.00
2019-04-20T19:08:58.873Z,14.00
2019-04-20T19:11:28.983Z,14.20
2019-04-20T19:14:16.147Z,14.30
2019-04-20T19:16:53.814Z,14.60
2019-04-20T19:19:24.518Z,14.90
2019-04-20T19:21:47.900Z,15.10
2019-04-20T19:24:20.289Z,15.30
2019-04-20T19:26:55.617Z,15.40
2019-04-20T19:29:28.405Z,15.50
2019-04-20T19:32:11.605Z,15.50
2019-04-20T19:34:36.348Z,15.50
2019-04-20T19:37:09.318Z,15.50
2019-04-20T19:39:43.709Z,15.50
2019-04-20T19:42:14.363Z,15.40
2019-04-20T19:44:49.509Z,15.50
2019-04-20T19:47:21.008Z,15.40
2019-04-20T19:49:43.841Z,15.40
2019-04-20T19:52:30.657Z,15.30
2019-04-20T19:54:56.837Z,15.30
2019-04-20T19:57:25.484Z,15.30
2019-04-20T19:59:41.297Z,15.20
2019-04-20T20:02:09.692Z,15.10
2019-04-20T20:04:48.232Z,15.10
2019-04-20T20:07:18.759Z,15.10
2019-04-20T20:09:52.486Z,15.00
2019-04-20T20:12:19.084Z,14.90
2019-04-20T20:14:49.244Z,14.90
2019-04-20T20:17:39.936Z,14.80
2019-04-20T20:20:14.724Z,14.80
2019-04-20T20:22:32.222Z,14.70
2019-04-20T20:24:52.911Z,14.60
2019-04-20T20:27:31.812Z,14.50
2019-04-20T20:30:04.183Z,14.40
2019-04-20T20:32:44.759Z,14.40
2019-04-20T20:35:05.875Z,14.20
2019-04-20T20:37:37.639Z,14.10
2019-04-20T20:40:12.653Z,14.00
2019-04-20T20:42:45.822Z,13.70
2019-04-20T20:45:11.979Z,13.50
2019-04-20T20:47:54.863Z,13.30
2019-04-20T20:50:26.249Z,13.10
2019-04-20T20:52:50.195Z,13.00
2019-04-20T20:55:24.657Z,13.00
2019-04-20T20:57:50.804Z,13.00
2019-04-20T21:00:23.856Z,12.90
2019-04-20T21:02:50.853Z,12.80
2019-04-20T21:05:17.596Z,12.80
2019-04-20T21:07:49.911Z,12.80
2019-04-20T21:10:25.865Z,12.60
2019-04-20T21:12:55.718Z,12.50
2019-04-20T21:15:24.153Z,12.40
2019-04-20T21:18:16.284Z,12.40
2019-04-20T21:20:46.466Z,12.40
2019-04-20T21:23:13.560Z,12.20
2019-04-20T21:25:37.698Z,12.10
2019-04-20T21:28:04.821Z,12.00
2019-04-20T21:30:40.016Z,11.80
2019-04-20T21:33:07.346Z,11.80
2019-04-20T21:35:42.061Z,11.80
2019-04-20T21:38:11.689Z,11.80
2019-04-20T21:40:43.011Z,11.70
2019-04-20T21:43:11.385Z,11.70
2019-04-20T21:45:48.390Z,11.70
2019-04-20T21:48:35.029Z,11.80
2019-04-20T21:51:05.439Z,11.80
2019-04-20T21:53:23.119Z,11.70
2019-04-20T21:55:48.007Z,11.80
2019-04-20T21:58:25.229Z,11.70
2019-04-20T22:01:08.050Z,11.70
2019-04-20T22:03:29.888Z,11.70
2019-04-20T22:06:06.862Z,11.60
2019-04-20T22:08:39.381Z,11.60
2019-04-20T22:11:08.294Z,11.50
2019-04-20T22:13:41.671Z,11.40
2019-04-20T22:16:12.497Z,11.40
2019-04-20T22:18:58.236Z,11.30
2019-04-20T22:21:21.027Z,11.20
2019-04-20T22:24:00.192Z,11.20
2019-04-20T22:26:26.320Z,11.10
2019-04-20T22:28:47.922Z,11.10
2019-04-20T22:31:18.315Z,11.00
2019-04-20T22:33:48.945Z,10.90
2019-04-20T22:36:20.195Z,10.80
2019-04-20T22:39:09.677Z,10.70
2019-04-20T22:41:53.588Z,10.50
2019-04-20T22:44:21.376Z,10.40
2019-04-20T22:46:50.500Z,10.30
2019-04-20T22:49:36.150Z,10.30
2019-04-20T22:51:59.516Z,10.20
2019-04-20T22:54:39.755Z,10.20
2019-04-20T22:57:03.466Z,10.20
2019-04-20T22:59:37.279Z,10.20
2019-04-20T23:02:00.336Z,10.10
2019-04-20T23:04:28.757Z,10.10
2019-04-20T23:06:59.148Z,10.10
2019-04-20T23:09:28.928Z,10.10
2019-04-20T23:12:03.591Z,10.00
2019-04-20T23:14:29.795Z,10.00
2019-04-20T23:16:59.800Z,10.00
2019-04-20T23:19:38.217Z,10.00
2019-04-20T23:22:04.581Z,10.00
2019-04-20T23:24:33.203Z,9.90
2019-04-20T23:27:04.409Z,9.90
2019-04-20T23:29:37.895Z,9.90
2019-04-20T23:32:09.837Z,9.90
2019-04-20T23:34:38.946Z,9.90
2019-04-20T23:37:16.028Z,9.80
2019-04-20T23:39:41.526Z,9.80
2019-04-20T23:42:16.108Z,9.70
2019-04-20T23:44:56.017Z,9.70
2019-04-20T23:47:32.022Z,9.70
2019-04-20T23:50:19.137Z,9.70
2019-04-20T23:53:03.803Z,9.60
2019-04-20T23:55:10.292Z,9.60
2019-04-20T23:57:39.762Z,9.60
